createdAt,value
2017-04-25T06:24:38.769Z,59.90
2017-04-25T06:26:16.256Z,59.50
2017-04-25T06:27:14.092Z,60.10
2017-04-25T06:28:13.180Z,60.20
2017-04-25T06:29:10.750Z,60.20
2017-04-25T06:30:08.921Z,60.10
2017-04-25T06:31:07.351Z,59.50
2017-04-25T06:32:05.749Z,59.70
2017-04-25T06:33:03.205Z,59.30
2017-04-25T06:34:01.496Z,59.60
2017-04-25T06:34:59.453Z,59.60
2017-04-25T06:35:56.917Z,58.60
2017-04-25T06:36:55.449Z,58.80
2017-04-25T06:37:52.938Z,58.60
2017-04-25T06:38:50.397Z,59.10
2017-04-25T06:39:48.465Z,59.30
2017-04-25T06:40:46.005Z,59.80
2017-04-25T06:41:44.445Z,60.40
2017-04-25T06:42:41.849Z,60.20
2017-04-25T06:43:39.330Z,59.60
2017-04-25T06:44:36.873Z,59.40
2017-04-25T06:45:34.480Z,59.70
2017-04-25T06:46:32.655Z,59.40
2017-04-25T06:47:29.990Z,59.30
2017-04-25T06:48:27.360Z,60.00
2017-04-25T06:49:24.779Z,59.80
2017-04-25T06:50:22.774Z,59.10
2017-04-25T06:51:20.113Z,59.40
2017-04-25T06:52:18.413Z,59.20
2017-04-25T07:02:58.474Z,59.60
2017-04-25T07:03:55.785Z,61.30
2017-04-25T07:04:53.301Z,61.40
2017-04-25T07:05:50.650Z,61.00
2017-04-25T07:06:49.642Z,60.70
2017-04-25T07:07:47.540Z,60.60
2017-04-25T07:08:45.562Z,60.70
2017-04-25T07:09:43.605Z,60.60
2017-04-25T07:10:41.702Z,61.50
2017-04-25T07:11:40.116Z,62.10
2017-04-25T07:12:37.494Z,62.70
2017-04-25T07:13:34.896Z,63.00
2017-04-25T07:14:33.582Z,63.70
2017-04-25T07:15:31.002Z,62.80
2017-04-25T07:16:28.484Z,64.20
2017-04-25T07:17:26.003Z,64.30
2017-04-25T07:18:23.474Z,65.10
2017-04-25T07:19:20.814Z,64.90
2017-04-25T07:20:18.985Z,65.90
2017-04-25T07:21:17.856Z,66.30
2017-04-25T07:22:15.357Z,66.40
2017-04-25T07:23:13.760Z,67.30
2017-04-25T07:24:11.082Z,65.10
2017-04-25T07:25:09.328Z,65.40
2017-04-25T07:26:07.861Z,66.10
2017-04-25T07:27:05.205Z,66.10
2017-04-25T07:28:03.939Z,67.30
2017-04-25T07:29:01.273Z,67.30
2017-04-25T07:29:59.466Z,69.30
2017-04-25T07:30:56.855Z,69.30
2017-04-25T07:31:54.194Z,68.90
2017-04-25T07:32:52.257Z,70.00
2017-04-25T07:33:49.706Z,70.00
2017-04-25T07:34:47.848Z,69.70
2017-04-25T07:35:45.177Z,69.50
2017-04-25T07:36:43.255Z,71.80
2017-04-25T07:37:41.322Z,71.80
2017-04-25T07:38:39.676Z,73.00
2017-04-25T07:39:37.915Z,72.60
2017-04-25T07:40:36.565Z,72.50
2017-04-25T07:41:33.902Z,72.30
2017-04-25T07:42:31.305Z,73.10
2017-04-25T07:43:28.676Z,72.80
2017-04-25T07:44:26.083Z,72.50
2017-04-25T07:45:23.955Z,71.60
2017-04-25T07:46:21.924Z,72.10
2017-04-25T07:47:19.262Z,72.60
2017-04-25T07:48:17.394Z,71.40
2017-04-25T07:49:14.739Z,71.40
2017-04-25T07:50:12.162Z,71.30
2017-04-25T07:51:09.505Z,69.70
2017-04-25T07:52:08.546Z,70.30
2017-04-25T07:53:06.760Z,70.30
2017-04-25T07:54:04.253Z,70.90
2017-04-25T07:55:01.605Z,69.50
2017-04-25T07:55:59.570Z,69.70
2017-04-25T07:56:59.045Z,69.30
2017-04-25T07:57:56.395Z,68.50
2017-04-25T07:58:54.554Z,68.50
2017-04-25T07:59:52.086Z,68.50
2017-04-25T08:00:50.174Z,67.20
2017-04-25T08:01:48.266Z,64.20
2017-04-25T08:02:46.369Z,64.40
2017-04-25T08:03:45.172Z,64.30
2017-04-25T08:04:43.594Z,66.90
2017-04-25T08:05:43.829Z,64.20
2017-04-25T08:06:42.198Z,64.10
2017-04-25T08:07:40.583Z,63.40
2017-04-25T08:08:40.217Z,63.20
2017-04-25T08:09:38.465Z,63.20
2017-04-25T08:10:36.444Z,61.40
2017-04-25T08:11:34.073Z,62.00
2017-04-25T08:12:31.736Z,62.00
2017-04-25T08:13:30.190Z,63.80
2017-04-25T08:14:28.865Z,62.30
2017-04-25T08:15:26.679Z,62.90
2017-04-25T08:16:24.309Z,62.50
2017-04-25T08:17:22.188Z,62.70
2017-04-25T08:18:20.831Z,62.70
2017-04-25T08:19:20.324Z,61.80
2017-04-25T08:20:18.072Z,61.50
2017-04-25T08:21:15.944Z,61.10
2017-04-25T08:22:13.699Z,61.50
2017-04-25T08:23:11.457Z,61.60
2017-04-25T08:24:09.696Z,61.60
2017-04-25T08:25:09.066Z,61.90
2017-04-25T08:26:07.009Z,60.80
2017-04-25T08:27:04.623Z,62.40
2017-04-25T08:28:01.969Z,64.70
2017-04-25T08:29:00.219Z,66.00
2017-04-25T08:29:58.708Z,67.10
2017-04-25T08:30:58.354Z,67.10
2017-04-25T08:31:56.446Z,69.10
2017-04-25T08:32:53.918Z,69.10
2017-04-25T08:33:51.870Z,69.00
2017-04-25T08:34:49.223Z,68.70
2017-04-25T08:35:47.399Z,67.90
2017-04-25T08:36:47.755Z,67.90
2017-04-25T08:37:45.834Z,69.60
2017-04-25T08:38:43.791Z,69.50
2017-04-25T08:39:41.211Z,67.20
2017-04-25T08:40:38.699Z,68.40
2017-04-25T08:41:36.033Z,67.90
2017-04-25T08:42:34.198Z,67.70
2017-04-25T08:43:32.190Z,67.30
2017-04-25T08:44:29.601Z,68.70
2017-04-25T08:45:26.937Z,68.80
2017-04-25T08:46:24.325Z,68.40
2017-04-25T08:47:21.954Z,68.40
2017-04-25T08:48:19.292Z,67.30
2017-04-25T08:49:16.651Z,66.10
2017-04-25T08:50:14.955Z,65.40
2017-04-25T08:51:12.961Z,64.50
2017-04-25T08:52:10.282Z,63.10
2017-04-25T08:53:07.882Z,61.90
2017-04-25T08:54:06.200Z,58.80
2017-04-25T08:55:04.190Z,58.50
2017-04-25T08:56:01.527Z,58.60
2017-04-25T08:56:59.516Z,59.00
2017-04-25T08:57:56.944Z,60.40
2017-04-25T08:58:54.334Z,62.40
2017-04-25T08:59:51.711Z,61.70
2017-04-25T09:00:49.888Z,59.60
2017-04-25T09:01:47.219Z,58.30
2017-04-25T09:02:44.711Z,58.60
2017-04-25T09:03:42.083Z,58.80
2017-04-25T09:04:39.456Z,56.40
2017-04-25T09:06:57.166Z,57.50
2017-04-25T09:07:55.342Z,54.50
2017-04-25T09:08:52.812Z,54.40
2017-04-25T09:09:51.063Z,54.90
2017-04-25T09:10:48.466Z,55.70
2017-04-25T09:11:46.527Z,54.40
2017-04-25T09:12:44.551Z,51.20
2017-04-25T09:13:41.945Z,52.90
2017-04-25T09:14:39.962Z,52.90
2017-04-25T09:15:37.362Z,50.00
2017-04-25T09:16:34.742Z,50.90
2017-04-25T09:17:33.113Z,53.40
2017-04-25T09:18:30.972Z,51.30
2017-04-25T09:19:30.073Z,50.40
2017-04-25T09:20:28.001Z,50.40
2017-04-25T09:21:25.410Z,50.50
2017-04-25T09:32:02.908Z,52.30
2017-04-25T09:33:01.065Z,53.80
2017-04-25T09:33:58.417Z,57.10
2017-04-25T09:34:56.416Z,55.40
2017-04-25T09:35:53.749Z,54.60
2017-04-25T09:36:52.094Z,54.90
2017-04-25T09:37:50.389Z,53.80
2017-04-25T09:38:48.729Z,55.00
2017-04-25T09:39:46.116Z,55.90
2017-04-25T09:40:43.566Z,55.20
2017-04-25T09:41:41.009Z,55.30
2017-04-25T09:42:39.315Z,55.10
2017-04-25T09:43:37.264Z,56.00
2017-04-25T09:44:35.490Z,54.30
2017-04-25T09:45:33.514Z,53.50
2017-04-25T09:46:30.937Z,53.90
2017-04-25T09:47:28.362Z,54.90
2017-04-25T09:48:25.759Z,54.70
2017-04-25T09:49:23.097Z,54.90
2017-04-25T09:50:20.496Z,55.90
2017-04-25T09:51:18.095Z,58.20
2017-04-25T09:52:15.448Z,60.10
2017-04-25T09:53:12.848Z,60.20
2017-04-25T09:54:10.190Z,61.70
2017-04-25T09:55:07.657Z,62.30
2017-04-25T09:56:05.207Z,58.20
2017-04-25T09:57:03.416Z,62.70
2017-04-25T09:58:00.785Z,62.50
2017-04-25T09:58:58.955Z,61.00
2017-04-25T09:59:56.351Z,60.90
2017-04-25T10:00:53.844Z,62.00
2017-04-25T10:01:51.312Z,59.30
2017-04-25T10:02:49.619Z,60.00
2017-04-25T10:03:47.184Z,60.00
2017-04-25T10:04:45.341Z,59.80
2017-04-25T10:05:43.433Z,59.90
2017-04-25T10:06:40.875Z,61.00
2017-04-25T10:07:38.304Z,59.90
2017-04-25T10:08:35.917Z,61.20
2017-04-25T10:09:33.410Z,62.10
2017-04-25T10:10:30.814Z,58.30
2017-04-25T10:11:28.407Z,55.70
2017-04-25T10:12:25.893Z,56.40
2017-04-25T10:13:23.439Z,57.00
2017-04-25T10:14:21.024Z,57.20
2017-04-25T10:15:18.415Z,56.50
2017-04-25T10:16:15.870Z,55.80
2017-04-25T10:17:13.987Z,53.40
2017-04-25T10:18:11.580Z,54.90
2017-04-25T10:19:09.046Z,55.90
2017-04-25T10:20:06.814Z,54.90
2017-04-25T10:21:04.992Z,55.40
2017-04-25T10:22:02.996Z,55.60
2017-04-25T10:23:00.792Z,56.30
2017-04-25T10:23:58.584Z,53.40
2017-04-25T10:24:56.416Z,54.20
2017-04-25T10:25:54.262Z,54.10
2017-04-25T10:26:51.970Z,52.60
2017-04-25T10:27:50.719Z,54.60
2017-04-25T10:28:49.395Z,53.40
2017-04-25T10:29:48.443Z,53.40
2017-04-25T10:30:46.499Z,54.50
2017-04-25T10:31:46.650Z,56.50
2017-04-25T10:32:44.913Z,54.90
2017-04-25T10:33:42.728Z,55.90
2017-04-25T10:34:41.063Z,56.60
2017-04-25T10:35:39.186Z,56.00
2017-04-25T10:36:37.597Z,56.00
2017-04-25T10:37:35.550Z,55.00
2017-04-25T10:38:33.327Z,55.70
2017-04-25T10:39:32.046Z,55.10
2017-04-25T10:40:30.734Z,55.10
2017-04-25T10:41:29.228Z,56.10
2017-04-25T10:42:27.330Z,53.90
2017-04-25T10:43:28.627Z,52.50
2017-04-25T10:44:26.907Z,52.00
2017-04-25T10:45:24.965Z,51.20
2017-04-25T10:46:23.475Z,50.00
2017-04-25T10:47:22.244Z,49.00
2017-04-25T10:48:20.850Z,48.20
2017-04-25T10:49:18.884Z,49.00
2017-04-25T10:50:17.169Z,49.90
2017-04-25T10:51:17.823Z,49.90
2017-04-25T10:52:15.894Z,51.30
2017-04-25T10:53:13.975Z,50.30
2017-04-25T10:54:12.138Z,48.30
2017-04-25T10:55:10.685Z,47.40
2017-04-25T10:56:09.740Z,48.40
2017-04-25T10:57:08.378Z,50.60
2017-04-25T10:58:06.456Z,48.60
2017-04-25T10:59:04.111Z,49.20
2017-04-25T11:00:02.859Z,47.20
2017-04-25T11:01:00.954Z,45.00
2017-04-25T11:01:59.753Z,48.30
2017-04-25T11:02:57.520Z,48.30
2017-04-25T11:03:55.415Z,45.30
2017-04-25T11:04:53.050Z,47.50
2017-04-25T11:05:51.054Z,47.70
2017-04-25T11:06:49.050Z,48.20
2017-04-25T11:07:46.447Z,45.30
2017-04-25T11:08:44.558Z,44.60
2017-04-25T11:09:42.014Z,47.10
2017-04-25T11:10:39.534Z,44.40
2017-04-25T11:11:37.581Z,44.60
2017-04-25T11:12:35.193Z,43.00
2017-04-25T11:13:32.630Z,43.80
2017-04-25T11:14:30.206Z,44.80
2017-04-25T11:15:27.611Z,44.40
2017-04-25T11:16:25.037Z,46.50
2017-04-25T11:17:23.477Z,47.20
2017-04-25T11:18:20.943Z,48.80
2017-04-25T11:19:18.485Z,46.80
2017-04-25T11:20:16.553Z,46.50
2017-04-25T11:21:14.005Z,46.60
2017-04-25T11:22:11.463Z,44.90
2017-04-25T11:23:09.059Z,44.90
2017-04-25T11:24:07.477Z,46.40
2017-04-25T11:25:04.859Z,45.90
2017-04-25T11:26:02.287Z,48.10
2017-04-25T11:27:00.955Z,47.20
2017-04-25T11:27:59.409Z,48.90
2017-04-25T11:28:57.390Z,49.90
2017-04-25T11:29:54.796Z,51.80
2017-04-25T11:30:52.290Z,51.50
2017-04-25T11:31:50.011Z,49.50
2017-04-25T11:32:47.522Z,50.10
2017-04-25T11:33:44.883Z,49.00
2017-04-25T11:34:42.303Z,46.70
2017-04-25T11:35:39.709Z,46.70
2017-04-25T11:36:37.618Z,44.60
2017-04-25T11:37:35.145Z,47.50
2017-04-25T11:38:32.517Z,46.00
2017-04-25T11:39:29.938Z,46.10
2017-04-25T11:40:27.395Z,48.80
2017-04-25T11:41:24.781Z,43.80
2017-04-25T11:42:23.477Z,45.50
2017-04-25T11:43:21.425Z,45.30
2017-04-25T11:44:19.627Z,44.60
2017-04-25T11:45:17.794Z,41.20
2017-04-25T11:46:15.885Z,39.80
2017-04-25T11:47:13.488Z,40.00
2017-04-25T11:48:11.470Z,42.70
2017-04-25T11:49:08.855Z,42.80
2017-04-25T11:50:06.255Z,40.30
2017-04-25T11:51:05.022Z,41.20
2017-04-25T11:52:02.398Z,41.10
2017-04-25T11:52:59.981Z,40.60
2017-04-25T11:53:57.602Z,41.20
2017-04-25T11:54:55.006Z,41.10
2017-04-25T11:55:55.310Z,41.30
2017-04-25T11:56:53.319Z,41.20
2017-04-25T11:57:50.781Z,41.10
2017-04-25T11:58:49.258Z,42.50
2017-04-25T11:59:46.786Z,42.00
2017-04-25T12:00:44.177Z,38.20
2017-04-25T12:01:42.124Z,39.60
2017-04-25T12:02:39.568Z,39.20
2017-04-25T12:03:37.051Z,40.40
2017-04-25T12:04:35.039Z,40.10
2017-04-25T12:05:32.421Z,38.60
2017-04-25T12:06:30.438Z,38.60
2017-04-25T12:07:28.334Z,38.90
2017-04-25T12:08:26.593Z,37.60
2017-04-25T12:09:23.944Z,36.80
2017-04-25T12:10:21.371Z,35.60
2017-04-25T12:11:19.121Z,36.60
2017-04-25T12:12:16.523Z,37.70
2017-04-25T12:13:13.933Z,36.20
2017-04-25T12:14:11.385Z,34.10
2017-04-25T12:15:08.802Z,35.60
2017-04-25T12:16:06.249Z,36.60
2017-04-25T12:17:04.452Z,35.10
2017-04-25T12:18:01.812Z,37.20
2017-04-25T12:18:59.336Z,37.60
2017-04-25T12:19:56.682Z,37.10
2017-04-25T12:20:54.129Z,36.30
2017-04-25T12:21:52.982Z,37.80
2017-04-25T12:22:53.529Z,35.40
2017-04-25T12:23:50.994Z,34.60
2017-04-25T12:24:48.418Z,37.50
2017-04-25T12:25:45.812Z,35.00
2017-04-25T12:26:44.681Z,36.80
2017-04-25T12:27:42.095Z,35.20
2017-04-25T12:28:39.592Z,34.40
2017-04-25T12:29:38.385Z,34.50
2017-04-25T12:30:36.416Z,33.80
2017-04-25T12:31:33.795Z,34.00
2017-04-25T12:32:31.190Z,35.40
2017-04-25T12:33:28.569Z,37.40
2017-04-25T12:34:25.924Z,36.70
2017-04-25T12:35:24.683Z,37.80
2017-04-25T12:36:23.510Z,36.60
2017-04-25T12:37:21.481Z,36.50
2017-04-25T12:38:18.889Z,36.20
2017-04-25T12:39:17.118Z,35.10
2017-04-25T12:40:14.756Z,37.40
2017-04-25T12:41:12.614Z,34.30
2017-04-25T12:42:09.991Z,33.80
2017-04-25T12:43:07.333Z,33.00
2017-04-25T12:44:05.575Z,32.60
2017-04-25T12:45:03.526Z,33.70
2017-04-25T12:46:01.603Z,32.60
2017-04-25T12:46:58.929Z,33.50
2017-04-25T12:47:56.908Z,32.10
2017-04-25T12:48:54.278Z,30.70
2017-04-25T12:49:52.726Z,31.10
2017-04-25T12:50:50.578Z,29.60
2017-04-25T12:51:48.767Z,30.20
2017-04-25T12:52:46.142Z,30.00
2017-04-25T12:53:44.128Z,29.20
2017-04-25T12:54:42.307Z,29.10
2017-04-25T12:55:40.475Z,29.10
2017-04-25T12:56:38.503Z,29.70
2017-04-25T12:57:35.868Z,31.00
2017-04-25T12:58:33.431Z,29.50
2017-04-25T12:59:31.001Z,28.10
2017-04-25T13:00:30.668Z,28.00
2017-04-25T13:01:28.154Z,26.80
2017-04-25T13:02:25.518Z,26.70
2017-04-25T13:03:23.189Z,27.20
2017-04-25T13:04:20.558Z,28.60
2017-04-25T13:05:18.016Z,29.00
2017-04-25T13:06:16.163Z,29.00
2017-04-25T13:07:13.626Z,29.50
2017-04-25T13:08:11.160Z,29.70
2017-04-25T13:09:09.388Z,31.20
2017-04-25T13:10:06.883Z,31.40
2017-04-25T13:11:04.917Z,30.70
2017-04-25T13:12:02.341Z,31.70
2017-04-25T13:12:59.843Z,31.90
2017-04-25T13:13:57.368Z,32.70
2017-04-25T13:14:55.749Z,33.50
2017-04-25T13:15:53.420Z,32.10
2017-04-25T13:16:50.822Z,32.20
2017-04-25T13:17:50.847Z,34.80
2017-04-25T13:18:48.279Z,34.80
2017-04-25T13:19:45.740Z,34.60
2017-04-25T13:20:43.751Z,34.10
2017-04-25T13:21:42.008Z,35.50
2017-04-25T13:22:39.489Z,34.10
2017-04-25T13:23:36.841Z,35.30
2017-04-25T13:24:34.300Z,34.50
2017-04-25T13:25:32.254Z,35.40
2017-04-25T13:26:30.545Z,35.50
2017-04-25T13:27:28.938Z,32.70
2017-04-25T13:28:27.647Z,32.70
2017-04-25T13:29:25.288Z,32.80
2017-04-25T13:30:23.398Z,34.40
2017-04-25T13:31:20.846Z,31.20
2017-04-25T13:32:18.471Z,31.10
2017-04-25T13:33:16.727Z,31.50
2017-04-25T13:34:15.071Z,31.40
2017-04-25T13:35:13.068Z,30.90
2017-04-25T13:36:11.398Z,28.60
2017-04-25T13:37:09.631Z,30.20
2017-04-25T13:38:07.071Z,30.10
2017-04-25T13:39:06.043Z,29.50
2017-04-25T13:40:04.131Z,29.80
2017-04-25T13:41:02.045Z,30.80
2017-04-25T13:42:00.144Z,29.60
2017-04-25T13:42:57.745Z,30.00
2017-04-25T13:43:55.114Z,30.00
2017-04-25T13:44:52.525Z,31.70
2017-04-25T13:45:50.830Z,31.10
2017-04-25T13:46:48.248Z,30.20
2017-04-25T13:47:46.482Z,31.60
2017-04-25T13:48:43.977Z,31.20
2017-04-25T13:49:42.282Z,31.50
2017-04-25T13:50:40.955Z,31.10
2017-04-25T13:51:38.399Z,30.00
2017-04-25T13:52:36.140Z,32.00
2017-04-25T13:53:34.092Z,31.00
2017-04-25T13:54:32.269Z,30.80
2017-04-25T13:55:29.798Z,31.10
2017-04-25T13:56:28.874Z,32.40
2017-04-25T13:57:26.439Z,32.40
2017-04-25T13:58:23.902Z,32.70
2017-04-25T13:59:21.420Z,32.00
2017-04-25T14:00:21.035Z,32.30
2017-04-25T14:01:19.297Z,32.40
2017-04-25T14:02:18.115Z,32.40
2017-04-25T14:03:16.495Z,32.00
2017-04-25T14:04:14.428Z,31.00
2017-04-25T14:05:12.818Z,33.00
2017-04-25T14:06:10.661Z,32.70
2017-04-25T14:07:10.064Z,33.90
2017-04-25T14:08:07.508Z,32.30
2017-04-25T14:09:05.700Z,30.60
2017-04-25T14:10:04.661Z,30.80
2017-04-25T14:11:03.048Z,30.80
2017-04-25T14:12:01.848Z,29.70
2017-04-25T14:12:59.729Z,29.60
2017-04-25T14:13:57.999Z,30.00
2017-04-25T14:14:57.466Z,30.90
2017-04-25T14:15:55.000Z,32.10
2017-04-25T14:16:53.035Z,33.00
2017-04-25T14:17:50.782Z,33.00
2017-04-25T14:18:48.998Z,33.20
2017-04-25T14:19:46.796Z,33.60
2017-04-25T14:20:44.170Z,33.70
2017-04-25T14:21:42.585Z,33.50
2017-04-25T14:22:41.565Z,34.20
2017-04-25T14:23:39.032Z,34.80
2017-04-25T14:24:36.479Z,33.70
2017-04-25T14:25:36.211Z,31.30
2017-04-25T14:26:34.354Z,28.90
2017-04-25T14:27:32.675Z,28.90
2017-04-25T14:28:30.847Z,28.30
2017-04-25T14:29:28.796Z,28.20
2017-04-25T14:30:26.176Z,27.80
2017-04-25T14:31:24.710Z,27.40
2017-04-25T14:32:23.445Z,26.00
2017-04-25T14:33:21.153Z,26.00
2017-04-25T14:34:19.585Z,26.90
2017-04-25T14:35:17.503Z,25.20
2017-04-25T14:36:16.348Z,25.50
2017-04-25T14:37:14.042Z,25.50
2017-04-25T14:38:11.594Z,27.70
2017-04-25T14:39:09.141Z,26.80
2017-04-25T14:40:09.174Z,25.50
2017-04-25T14:41:07.907Z,25.40
2017-04-25T14:42:06.494Z,25.80
2017-04-25T14:43:05.270Z,26.80
2017-04-25T14:44:03.651Z,28.30
2017-04-25T14:45:01.368Z,29.20
2017-04-25T14:46:00.403Z,30.90
2017-04-25T14:46:58.851Z,30.90
2017-04-25T14:47:56.646Z,32.80
2017-04-25T14:48:55.088Z,34.00
2017-04-25T14:49:52.774Z,34.70
2017-04-25T14:50:51.070Z,35.10
2017-04-25T14:51:48.859Z,35.60
2017-04-25T14:52:46.590Z,35.10
2017-04-25T14:53:43.978Z,35.80
2017-04-25T14:54:41.499Z,35.40
2017-04-25T14:55:39.818Z,34.70
2017-04-25T14:56:37.468Z,34.00
2017-04-25T14:57:34.891Z,34.40
2017-04-25T14:58:32.304Z,35.70
2017-04-25T14:59:29.853Z,36.40
2017-04-25T15:00:27.221Z,36.70
2017-04-25T15:01:24.604Z,37.10
2017-04-25T15:02:22.048Z,37.40
2017-04-25T15:03:19.433Z,38.20
2017-04-25T15:04:17.154Z,38.20
2017-04-25T15:05:15.867Z,38.50
2017-04-25T15:06:14.336Z,40.20
2017-04-25T15:07:11.794Z,41.10
2017-04-25T15:08:09.250Z,40.90
2017-04-25T15:09:07.966Z,42.20
2017-04-25T15:10:05.545Z,41.20
2017-04-25T15:11:03.045Z,40.10
2017-04-25T15:12:00.539Z,41.10
2017-04-25T15:12:57.982Z,40.00
2017-04-25T15:13:55.436Z,39.30
2017-04-25T15:14:52.819Z,40.60
2017-04-25T15:15:51.732Z,38.80
2017-04-25T15:16:49.134Z,38.80
2017-04-25T15:17:46.578Z,38.50
2017-04-25T15:18:43.962Z,38.90
2017-04-25T15:19:42.102Z,38.20
2017-04-25T15:20:40.225Z,38.20
2017-04-25T15:21:37.736Z,37.60
2017-04-25T15:22:36.386Z,38.30
2017-04-25T15:23:33.823Z,39.10
2017-04-25T15:24:31.221Z,38.60
2017-04-25T15:25:28.695Z,39.30
2017-04-25T15:26:27.214Z,38.90
2017-04-25T15:27:24.883Z,38.60
2017-04-25T15:28:22.357Z,39.00
2017-04-25T15:29:19.831Z,39.70
2017-04-25T15:30:17.254Z,39.10
2017-04-25T15:31:14.721Z,39.70
2017-04-25T15:32:12.101Z,39.20
2017-04-25T15:33:09.881Z,40.20
2017-04-25T15:34:07.336Z,40.90
2017-04-25T15:35:04.899Z,42.10
2017-04-25T15:36:03.892Z,42.10
2017-04-25T15:37:01.961Z,42.30
2017-04-25T15:37:59.544Z,43.00
2017-04-25T15:38:57.010Z,43.40
2017-04-25T15:39:54.895Z,42.90
2017-04-25T15:40:52.409Z,42.90
2017-04-25T15:41:50.412Z,42.30
2017-04-25T15:42:50.012Z,42.00
2017-04-25T15:43:48.127Z,41.00
2017-04-25T15:44:45.794Z,38.70
2017-04-25T15:45:44.183Z,39.50
2017-04-25T15:46:41.674Z,39.80
2017-04-25T15:47:39.567Z,40.90
2017-04-25T15:48:37.620Z,41.10
2017-04-25T15:49:35.038Z,41.50
2017-04-25T15:50:32.500Z,42.00
2017-04-25T15:51:29.863Z,41.80
2017-04-25T15:52:27.266Z,42.70
2017-04-25T15:53:24.625Z,42.10
2017-04-25T15:54:22.042Z,42.30
2017-04-25T15:55:19.554Z,42.50
2017-04-25T15:56:18.173Z,42.10
2017-04-25T15:57:15.573Z,43.10
2017-04-25T15:58:12.945Z,41.40
2017-04-25T15:59:11.167Z,41.40
2017-04-25T16:00:08.587Z,41.20
2017-04-25T16:01:06.135Z,41.30
2017-04-25T16:02:04.153Z,42.10
2017-04-25T16:03:02.853Z,41.90
2017-04-25T16:04:00.292Z,41.40
2017-04-25T16:04:58.556Z,41.20
2017-04-25T16:05:56.422Z,41.40
2017-04-25T16:06:54.277Z,41.80
2017-04-25T16:07:52.010Z,42.20
2017-04-25T16:08:49.871Z,40.70
2017-04-25T16:09:48.181Z,41.60
2017-04-25T16:10:46.048Z,41.20
2017-04-25T16:11:43.818Z,40.90
2017-04-25T16:12:41.692Z,40.50
2017-04-25T16:13:39.605Z,40.30
2017-04-25T16:14:38.236Z,41.10
2017-04-25T16:15:36.192Z,39.90
2017-04-25T16:16:34.209Z,39.40
2017-04-25T16:17:32.827Z,39.60
2017-04-25T16:18:31.340Z,39.30
2017-04-25T16:19:30.089Z,39.30
2017-04-25T16:20:28.055Z,39.10
2017-04-25T16:21:26.337Z,39.70
2017-04-25T16:22:24.226Z,39.30
2017-04-25T16:23:23.302Z,39.30
2017-04-25T16:24:21.116Z,38.60
2017-04-25T16:25:19.456Z,38.00
2017-04-25T16:26:18.306Z,38.40
2017-04-25T16:27:16.231Z,38.20
2017-04-25T16:28:15.363Z,38.20
2017-04-25T16:29:13.235Z,38.60
2017-04-25T16:30:12.870Z,38.30
2017-04-25T16:31:10.864Z,38.50
2017-04-25T16:32:08.969Z,39.70
2017-04-25T16:33:07.030Z,40.40
2017-04-25T16:34:04.509Z,41.30
2017-04-25T16:35:10.345Z,42.20
2017-04-25T16:36:08.230Z,42.90
2017-04-25T16:37:05.659Z,43.40
2017-04-25T16:38:03.250Z,43.60
2017-04-25T16:39:01.595Z,43.80
2017-04-25T16:39:59.351Z,44.40
2017-04-25T16:40:56.769Z,43.40
2017-04-25T16:41:55.306Z,43.30
2017-04-25T16:42:54.592Z,43.60
2017-04-25T16:43:52.857Z,43.50
2017-04-25T16:44:50.825Z,44.00
2017-04-25T16:45:48.817Z,44.00
2017-04-25T16:46:46.410Z,44.30
2017-04-25T16:47:43.874Z,44.40
2017-04-25T16:48:41.288Z,44.60
2017-04-25T16:49:38.698Z,45.00
2017-04-25T16:50:36.590Z,45.30
2017-04-25T16:51:36.165Z,45.20
2017-04-25T16:52:35.253Z,45.10
2017-04-25T16:53:32.687Z,45.50
2017-04-25T16:54:31.988Z,45.50
2017-04-25T16:55:30.860Z,45.30
2017-04-25T16:56:29.268Z,44.20
2017-04-25T16:57:27.656Z,44.40
2017-04-25T16:58:26.284Z,44.00
2017-04-25T16:59:24.012Z,44.40
2017-04-25T17:00:21.542Z,44.60
2017-04-25T17:01:19.388Z,43.80
2017-04-25T17:02:18.062Z,43.90
2017-04-25T17:03:17.132Z,43.90
2017-04-25T17:04:14.719Z,44.20
2017-04-25T17:05:13.280Z,44.40
2017-04-25T17:06:11.001Z,44.60
2017-04-25T17:07:09.511Z,44.00
2017-04-25T17:08:07.196Z,43.60
2017-04-25T17:09:06.142Z,43.50
2017-04-25T17:10:04.187Z,43.80
2017-04-25T17:11:02.231Z,43.60
2017-04-25T17:12:01.440Z,43.30
2017-04-25T17:13:00.250Z,42.60
2017-04-25T17:13:57.621Z,43.00
2017-04-25T17:14:56.372Z,42.90
2017-04-25T17:15:53.787Z,42.90
2017-04-25T17:16:51.759Z,43.60
2017-04-25T17:17:50.430Z,42.80
2017-04-25T17:18:48.795Z,43.10
2017-04-25T17:19:47.536Z,42.90
2017-04-25T17:20:45.367Z,43.80
2017-04-25T17:21:43.335Z,44.20
2017-04-25T17:22:42.017Z,44.60
2017-04-25T17:23:39.712Z,45.50
2017-04-25T17:24:38.502Z,46.10
2017-04-25T17:25:38.274Z,46.10
2017-04-25T17:26:35.854Z,47.20
2017-04-25T17:27:34.073Z,46.20
2017-04-25T17:28:32.141Z,46.50
2017-04-25T17:29:30.140Z,46.90
2017-04-25T17:30:28.802Z,46.50
2017-04-25T17:31:27.289Z,46.80
2017-04-25T17:32:25.657Z,47.10
2017-04-25T17:33:23.547Z,46.90
2017-04-25T17:34:21.065Z,46.90
2017-04-25T17:35:18.966Z,46.80
2017-04-25T17:36:19.203Z,47.30
2017-04-25T17:37:17.107Z,46.60
2017-04-25T17:38:15.133Z,47.10
2017-04-25T17:39:14.504Z,46.80
2017-04-25T17:40:13.714Z,46.10
2017-04-25T17:41:12.203Z,46.30
2017-04-25T17:42:09.718Z,46.10
2017-04-25T17:43:07.761Z,46.20
2017-04-25T17:44:05.317Z,46.60
2017-04-25T17:45:03.824Z,46.50
2017-04-25T17:46:02.332Z,45.90
2017-04-25T17:47:00.522Z,45.60
2017-04-25T17:48:00.254Z,45.60
2017-04-25T17:48:58.309Z,45.50
2017-04-25T17:49:56.182Z,46.00
2017-04-25T17:50:54.045Z,45.70
2017-04-25T17:51:51.751Z,45.50
2017-04-25T17:52:49.658Z,44.60
2017-04-25T17:53:48.254Z,44.20
2017-04-25T17:54:46.881Z,43.10
2017-04-25T17:55:45.585Z,43.60
2017-04-25T17:56:43.746Z,44.00
2017-04-25T17:57:42.598Z,43.90
2017-04-25T17:58:41.189Z,43.90
2017-04-25T17:59:39.333Z,43.80
2017-04-25T18:00:37.281Z,43.90
2017-04-25T18:01:35.033Z,44.50
2017-04-25T18:02:32.554Z,44.80
2017-04-25T18:03:32.317Z,44.80
2017-04-25T18:04:31.858Z,45.60
2017-04-25T18:05:29.454Z,45.90
2017-04-25T18:06:28.069Z,45.80
2017-04-25T18:07:25.897Z,46.20
2017-04-25T18:08:24.158Z,45.90
2017-04-25T18:09:21.574Z,45.60
2017-04-25T18:10:19.595Z,45.90
2017-04-25T18:11:17.359Z,45.90
2017-04-25T18:12:15.168Z,45.70
2017-04-25T18:13:14.424Z,46.00
2017-04-25T18:14:13.370Z,45.70
2017-04-25T18:15:11.082Z,45.40
2017-04-25T18:16:10.364Z,45.20
2017-04-25T18:17:09.351Z,44.20
2017-04-25T18:18:07.435Z,44.80
2017-04-25T18:19:04.917Z,44.10
2017-04-25T18:20:03.602Z,43.20
2017-04-25T18:21:02.015Z,43.50
2017-04-25T18:21:59.373Z,43.00
2017-04-25T18:22:56.995Z,43.00
2017-04-25T18:23:56.031Z,42.50
2017-04-25T18:24:53.561Z,43.20
2017-04-25T18:25:52.289Z,43.10
2017-04-25T18:26:51.097Z,43.40
2017-04-25T18:27:48.697Z,43.20
2017-04-25T18:28:46.631Z,43.80
2017-04-25T18:29:44.131Z,44.00
2017-04-25T18:30:43.330Z,43.80
2017-04-25T18:31:40.834Z,43.70
2017-04-25T18:32:39.218Z,43.50
2017-04-25T18:33:38.024Z,43.70
2017-04-25T18:34:37.090Z,43.80
2017-04-25T18:35:34.730Z,44.00
2017-04-25T18:36:32.893Z,45.00
2017-04-25T18:37:30.834Z,44.80
2017-04-25T18:38:29.222Z,44.70
2017-04-25T18:39:27.920Z,45.40
2017-04-25T18:40:26.270Z,45.40
2017-04-25T18:41:24.214Z,45.70
2017-04-25T18:42:23.427Z,45.00
2017-04-25T18:43:24.165Z,45.70
2017-04-25T18:44:22.770Z,45.70
2017-04-25T18:45:21.862Z,46.10
2017-04-25T18:46:19.912Z,46.10
2017-04-25T18:47:18.934Z,46.70
2017-04-25T18:48:17.705Z,46.10
2017-04-25T18:49:16.314Z,46.90
2017-04-25T18:50:13.951Z,46.90
2017-04-25T18:51:11.344Z,47.20
2017-04-25T18:52:10.542Z,47.80
2017-04-25T18:53:09.530Z,47.90
2017-04-25T18:54:07.350Z,48.20
2017-04-25T18:55:05.134Z,48.50
2017-04-25T18:56:03.619Z,48.90
2017-04-25T18:57:01.749Z,49.20
2017-04-25T18:58:00.468Z,49.40
2017-04-25T18:58:59.151Z,50.50
2017-04-25T18:59:56.939Z,49.60
2017-04-25T19:00:54.453Z,49.80
2017-04-25T19:01:52.208Z,50.00
2017-04-25T19:02:51.249Z,50.30
2017-04-25T19:03:50.329Z,50.50
2017-04-25T19:04:48.538Z,50.50
2017-04-25T19:05:46.664Z,50.40
2017-04-25T19:06:45.434Z,49.90
2017-04-25T19:07:44.193Z,49.90
2017-04-25T19:08:43.570Z,49.40
2017-04-25T19:09:42.420Z,49.40
2017-04-25T19:10:40.953Z,49.60
2017-04-25T19:11:38.558Z,49.90
2017-04-25T19:12:37.959Z,50.10